This is the latest recevied weather packets stored in our database for station/object KD8AZC-13. If no packets are shown the sender has not sent any weather packets the latest 10 day(s).
| Time | Temp. | Humidity | Pressure | Rain* | Wind** | Luminosity | Snow |
|---|---|---|---|---|---|---|---|
| 1777661158 | 18.33° C | 39% | 1009.9 hPa | 0 mm | - | - | - |
| 1777659354 | 17.78° C | 40% | 1010.5 hPa | 0 mm | - | - | - |
| 1777654840 | 16.67° C | 41% | 1011.8 hPa | 0 mm | - | - | - |
| 1777652128 | 15.56° C | 49% | 1012.6 hPa | 0 mm | - | - | - |
| 1777649419 | 14.44° C | 48% | 1013.3 hPa | 0 mm | - | - | - |
| 1777646708 | 12.22° C | 61% | 1013.7 hPa | 0 mm | - | - | - |
| 1777643152 | 8.33° C | 84% | 1014.4 hPa | 0 mm | - | - | - |
| 1777634115 | 1.67° C | 93% | 1015.6 hPa | 0 mm | - | - | - |
| 1777631414 | 1.11° C | 92% | 1015 hPa | 0 mm | - | - | - |
| 1777630508 | 1.11° C | 92% | 1015 hPa | 0 mm | - | - | - |
| 1777627805 | 1.11° C | 92% | 1015.2 hPa | 0 mm | - | - | - |
| 1777626903 | 1.11° C | 92% | 1015.3 hPa | 0 mm | - | - | - |
| 1777625160 | 1.67° C | 92% | 1015.1 hPa | 0 mm | - | - | - |
| 1777619747 | 1.67° C | 91% | 1014.7 hPa | 0 mm | - | - | - |
| 1777609824 | 4.44° C | 89% | 1014.9 hPa | 0 mm | - | - | - |
| 1777608016 | 4.44° C | 89% | 1014.9 hPa | 0 mm | - | - | - |
| 1777599961 | 5.56° C | 84% | 1013.5 hPa | 0 mm | - | - | - |
| 1777595425 | 8.89° C | 72% | 1013.1 hPa | 0 mm | - | - | - |
| 1777594521 | 9.44° C | 67% | 1012.9 hPa | 0 mm | - | - | - |
| 1777591813 | 10.56° C | 63% | 1012.5 hPa | 0 mm | - | - | - |
| 1777590913 | 10.56° C | 62% | 1012.4 hPa | 0 mm | - | - | - |
| 1777584619 | 10.56° C | 77% | 1011.9 hPa | 0.25 mm | - | - | - |
| 1777579207 | 13.89° C | 55% | 1011.1 hPa | 0 mm | - | - | - |
| 1777576547 | 15.56° C | 51% | 1010.8 hPa | 0 mm | - | - | - |
| 1777572034 | 15.56° C | 46% | 1009.7 hPa | 0 mm | - | - | - |
* Rain latest hour (hover to see other rain measurements)
** Current wind speed in m/s (hover to see current wind gust speed)